Weather at Kapitanovtsi Airstrip [CLOSED]

Public forecast

Using degrees Celsius for public forecast. Weather courtesy of forecast.io.

Closest aviation weather report (METAR) to Kapitanovtsi Airstrip

Closest report is Craiova Airport, 46.3 nm (85.7 km) ENE. Retrieved 2020/12/01 11:30 UTC (0 seconds ago):

LRCV 011130Z VRB01KT 0600 R27/1500U BKN001 OVC003 M01/M01 Q1023 R27/19//95

Closest aviation forecast (TAF) to Kapitanovtsi Airstrip

Forecast is more than 12 hours old.

Closest forecast is Craiova Airport, 46.3 nm (85.7 km) ENE. Retrieved 2014/07/19 18:48 UTC (6 years ago):

TAF LRCV 191800Z 1918/2024 CNL